MSR703 HECA-LIMC
Flight info
| Callsign | MSR703 |
|---|---|
| Flight time | N/A |
| Altitude | 32000 |
| Route | CVO L617 TANSA UL613 KOR UL53 IXONI DCT OLGAT DCT PES DCT TUFTE DCT LOMED DCT BEROK DCT MIVKI DCT GOLAS DCT MEBUR |
| Aircraft | A321/M-SDE3FGHIRWY/LB1 |
Departure
| Time | 2026-05-05 14:49 |
|---|---|
| Airport | Cairo International Airport (HECA) |
Arrival
| Time | N/A |
|---|---|
| Airport | Milan Malpensa International Airport (LIMC) |
| Time | Latitude | Longitude | Altitude | Speed | Heading |
|---|---|---|---|---|---|
| 2026-05-05 14:19 | 30.10932 | 31.39637 | 376 ft | 0 kts | 254° |
| 2026-05-05 14:39 | 30.10939 | 31.39662 | 374 ft | 4 kts | 250° |
| 2026-05-05 14:39 | 30.10949 | 31.39692 | 374 ft | 4 kts | 241° |
| 2026-05-05 14:39 | 30.10964 | 31.39716 | 374 ft | 4 kts | 214° |
| 2026-05-05 14:40 | 30.10982 | 31.39722 | 374 ft | 0 kts | 165° |
| 2026-05-05 14:42 | 30.10963 | 31.39728 | 374 ft | 6 kts | 165° |
| 2026-05-05 14:42 | 30.10904 | 31.39746 | 374 ft | 10 kts | 165° |
| 2026-05-05 14:42 | 30.10842 | 31.39765 | 374 ft | 11 kts | 165° |
| 2026-05-05 14:43 | 30.10759 | 31.39790 | 374 ft | 14 kts | 166° |
| 2026-05-05 14:43 | 30.10657 | 31.39821 | 374 ft | 15 kts | 165° |
| 2026-05-05 14:43 | 30.10558 | 31.39852 | 374 ft | 13 kts | 165° |
| 2026-05-05 14:43 | 30.10525 | 31.39861 | 374 ft | 4 kts | 166° |
| 2026-05-05 14:44 | 30.10493 | 31.39871 | 374 ft | 7 kts | 166° |
| 2026-05-05 14:44 | 30.10422 | 31.39869 | 374 ft | 13 kts | 206° |
| 2026-05-05 14:44 | 30.10346 | 31.39780 | 374 ft | 16 kts | 229° |
| 2026-05-05 14:44 | 30.10273 | 31.39682 | 374 ft | 16 kts | 229° |
| 2026-05-05 14:45 | 30.10210 | 31.39600 | 374 ft | 10 kts | 224° |
| 2026-05-05 14:45 | 30.10150 | 31.39581 | 374 ft | 9 kts | 164° |
| 2026-05-05 14:45 | 30.10101 | 31.39622 | 374 ft | 7 kts | 140° |
| 2026-05-05 14:45 | 30.10093 | 31.39629 | 374 ft | 0 kts | 140° |
| 2026-05-05 14:46 | 30.10091 | 31.39631 | 374 ft | 1 kts | 140° |
| 2026-05-05 14:46 | 30.10069 | 31.39652 | 374 ft | 9 kts | 140° |
| 2026-05-05 14:46 | 30.10028 | 31.39694 | 374 ft | 0 kts | 135° |
| 2026-05-05 14:47 | 30.10027 | 31.39695 | 374 ft | 1 kts | 135° |
| 2026-05-05 14:47 | 30.10004 | 31.39727 | 374 ft | 9 kts | 118° |
| 2026-05-05 14:47 | 30.10005 | 31.39815 | 373 ft | 9 kts | 84° |
| 2026-05-05 14:47 | 30.10017 | 31.39885 | 371 ft | 10 kts | 65° |
| 2026-05-05 14:48 | 30.10028 | 31.39904 | 370 ft | 0 kts | 52° |
| 2026-05-05 14:48 | 30.10028 | 31.39905 | 370 ft | 0 kts | 52° |
| 2026-05-05 14:48 | 30.10041 | 31.39923 | 370 ft | 20 kts | 51° |
| 2026-05-05 14:49 | 30.10290 | 31.40253 | 374 ft | 87 kts | 49° |
| 2026-05-05 14:49 | 30.10815 | 31.40952 | 372 ft | 142 kts | 49° |
| 2026-05-05 14:49 | 30.11570 | 31.41957 | 395 ft | 186 kts | 45° |
| 2026-05-05 14:49 | 30.12420 | 31.43075 | 1027 ft | 186 kts | 43° |
| 2026-05-05 14:50 | 30.13399 | 31.44016 | 1658 ft | 184 kts | 21° |
| 2026-05-05 14:50 | 30.14696 | 31.44142 | 1811 ft | 197 kts | 342° |
| 2026-05-05 14:50 | 30.15936 | 31.43357 | 1938 ft | 213 kts | 318° |
| 2026-05-05 14:50 | 30.17030 | 31.42101 | 2074 ft | 231 kts | 315° |
| 2026-05-05 14:51 | 30.18192 | 31.40721 | 2414 ft | 243 kts | 314° |
| 2026-05-05 14:51 | 30.19377 | 31.39302 | 3018 ft | 246 kts | 314° |
| 2026-05-05 14:51 | 30.20568 | 31.37874 | 3626 ft | 248 kts | 314° |
| 2026-05-05 14:51 | 30.21777 | 31.36419 | 4176 ft | 252 kts | 314° |
| 2026-05-05 14:52 | 30.22992 | 31.34958 | 4797 ft | 252 kts | 314° |
| 2026-05-05 14:52 | 30.24213 | 31.33492 | 5381 ft | 253 kts | 314° |
| 2026-05-05 14:52 | 30.24725 | 31.31288 | 5861 ft | 4730 kts | 314° |